sensor_id;sensor_type;location;lat;lon;timestamp;pressure;altitude;pressure_sealevel;temperature;humidity
9235;BME280;4652;42.716;23.218;2023-08-06T00:00:30;93675.81;;;19.79;100.00
9235;BME280;4652;42.716;23.218;2023-08-06T00:07:12;93714.09;;;19.50;100.00
9235;BME280;4652;42.716;23.218;2023-08-06T00:13:54;93735.50;;;19.48;100.00
9235;BME280;4652;42.716;23.218;2023-08-06T00:20:39;93696.03;;;19.42;100.00
9235;BME280;4652;42.716;23.218;2023-08-06T00:27:22;93714.69;;;19.66;100.00
9235;BME280;4652;42.716;23.218;2023-08-06T00:34:04;93677.53;;;19.61;100.00
9235;BME280;4652;42.716;23.218;2023-08-06T00:40:47;93688.34;;;19.21;100.00
9235;BME280;4652;42.716;23.218;2023-08-06T00:47:29;93731.41;;;19.05;100.00
9235;BME280;4652;42.716;23.218;2023-08-06T00:54:11;93685.50;;;19.14;100.00
9235;BME280;4652;42.716;23.218;2023-08-06T01:18:40;93644.19;;;20.22;100.00
9235;BME280;4652;42.716;23.218;2023-08-06T01:25:30;93643.50;;;19.92;100.00
9235;BME280;4652;42.716;23.218;2023-08-06T01:32:14;93646.84;;;19.75;100.00
9235;BME280;4652;42.716;23.218;2023-08-06T01:38:57;93639.09;;;19.77;100.00
9235;BME280;4652;42.716;23.218;2023-08-06T01:45:40;93646.25;;;19.92;100.00
9235;BME280;4652;42.716;23.218;2023-08-06T01:52:22;93644.75;;;19.98;100.00
9235;BME280;4652;42.716;23.218;2023-08-06T01:59:04;93627.59;;;20.01;100.00
9235;BME280;4652;42.716;23.218;2023-08-06T02:05:47;93620.59;;;20.04;100.00
9235;BME280;4652;42.716;23.218;2023-08-06T02:12:29;93618.56;;;19.93;100.00
9235;BME280;4652;42.716;23.218;2023-08-06T02:19:11;93619.22;;;19.83;100.00
9235;BME280;4652;42.716;23.218;2023-08-06T02:25:59;93666.78;;;19.39;100.00
9235;BME280;4652;42.716;23.218;2023-08-06T02:32:41;93654.06;;;19.23;100.00
9235;BME280;4652;42.716;23.218;2023-08-06T02:39:23;93637.16;;;19.41;100.00
9235;BME280;4652;42.716;23.218;2023-08-06T02:46:06;93674.50;;;19.36;100.00
9235;BME280;4652;42.716;23.218;2023-08-06T02:52:49;93645.22;;;19.33;100.00
9235;BME280;4652;42.716;23.218;2023-08-06T03:55:58;93671.75;;;19.36;100.00
9235;BME280;4652;42.716;23.218;2023-08-06T04:02:41;93690.75;;;19.56;100.00
9235;BME280;4652;42.716;23.218;2023-08-06T04:09:23;93680.38;;;19.68;100.00
9235;BME280;4652;42.716;23.218;2023-08-06T04:16:06;93695.56;;;19.66;100.00
9235;BME280;4652;42.716;23.218;2023-08-06T04:22:47;93693.69;;;19.73;100.00
9235;BME280;4652;42.716;23.218;2023-08-06T04:29:29;93671.13;;;19.83;100.00
9235;BME280;4652;42.716;23.218;2023-08-06T04:36:13;93669.78;;;20.04;100.00
9235;BME280;4652;42.716;23.218;2023-08-06T04:42:55;93655.91;;;20.23;100.00
9235;BME280;4652;42.716;23.218;2023-08-06T04:49:36;93643.22;;;20.44;100.00
9235;BME280;4652;42.716;23.218;2023-08-06T04:56:20;93618.75;;;20.66;100.00
9235;BME280;4652;42.716;23.218;2023-08-06T05:03:02;93602.81;;;20.82;100.00
9235;BME280;4652;42.716;23.218;2023-08-06T05:09:44;93592.31;;;20.94;100.00
9235;BME280;4652;42.716;23.218;2023-08-06T05:16:27;93592.50;;;21.26;100.00
9235;BME280;4652;42.716;23.218;2023-08-06T05:23:09;93589.81;;;21.47;100.00
9235;BME280;4652;42.716;23.218;2023-08-06T05:29:55;93596.09;;;21.65;100.00
9235;BME280;4652;42.716;23.218;2023-08-06T05:36:38;93575.41;;;22.35;100.00
9235;BME280;4652;42.716;23.218;2023-08-06T05:43:20;93550.66;;;22.88;100.00
9235;BME280;4652;42.716;23.218;2023-08-06T05:50:02;93562.16;;;23.49;100.00
9235;BME280;4652;42.716;23.218;2023-08-06T05:56:46;93562.19;;;24.11;100.00
9235;BME280;4652;42.716;23.218;2023-08-06T06:03:28;93570.59;;;24.78;100.00
9235;BME280;4652;42.716;23.218;2023-08-06T06:10:10;93589.19;;;25.08;100.00
9235;BME280;4652;42.716;23.218;2023-08-06T06:16:54;93590.16;;;25.62;100.00
9235;BME280;4652;42.716;23.218;2023-08-06T06:23:36;93601.84;;;26.53;91.38
9235;BME280;4652;42.716;23.218;2023-08-06T06:30:18;93610.06;;;28.02;69.80
9235;BME280;4652;42.716;23.218;2023-08-06T06:37:01;93628.69;;;26.99;74.42
9235;BME280;4652;42.716;23.218;2023-08-06T06:43:44;93640.91;;;26.78;78.52
9235;BME280;4652;42.716;23.218;2023-08-06T06:50:26;93629.00;;;27.24;74.12
9235;BME280;4652;42.716;23.218;2023-08-06T06:57:09;93652.53;;;29.60;61.53
9235;BME280;4652;42.716;23.218;2023-08-06T09:31:54;93609.13;;;30.20;49.80
9235;BME280;4652;42.716;23.218;2023-08-06T09:38:38;93597.34;;;29.91;51.72
9235;BME280;4652;42.716;23.218;2023-08-06T09:45:20;93593.25;;;30.33;51.88
9235;BME280;4652;42.716;23.218;2023-08-06T09:52:05;93599.41;;;29.45;52.73
9235;BME280;4652;42.716;23.218;2023-08-06T09:58:49;93549.47;;;29.87;51.34
9235;BME280;4652;42.716;23.218;2023-08-06T10:05:31;93607.28;;;30.67;51.59
9235;BME280;4652;42.716;23.218;2023-08-06T10:12:17;93611.53;;;31.40;51.31
9235;BME280;4652;42.716;23.218;2023-08-06T10:19:01;93611.25;;;30.66;53.09
9235;BME280;4652;42.716;23.218;2023-08-06T10:25:43;93622.28;;;29.49;53.13
9235;BME280;4652;42.716;23.218;2023-08-06T10:32:50;93620.78;;;29.16;54.74
9235;BME280;4652;42.716;23.218;2023-08-06T10:39:32;93604.66;;;28.66;54.72
9235;BME280;4652;42.716;23.218;2023-08-06T10:46:22;93630.00;;;28.81;54.85
9235;BME280;4652;42.716;23.218;2023-08-06T10:53:06;93638.28;;;28.32;56.01
9235;BME280;4652;42.716;23.218;2023-08-06T10:59:48;93658.72;;;27.40;70.84
9235;BME280;4652;42.716;23.218;2023-08-06T11:06:31;93667.06;;;26.17;100.00
9235;BME280;4652;42.716;23.218;2023-08-06T11:13:18;93641.16;;;25.77;100.00
9235;BME280;4652;42.716;23.218;2023-08-06T11:20:01;93651.16;;;25.67;100.00
9235;BME280;4652;42.716;23.218;2023-08-06T11:26:44;93674.41;;;25.29;91.29
9235;BME280;4652;42.716;23.218;2023-08-06T11:33:28;93655.97;;;24.78;100.00
9235;BME280;4652;42.716;23.218;2023-08-06T11:40:10;93642.69;;;25.10;81.67
9235;BME280;4652;42.716;23.218;2023-08-06T11:46:53;93631.66;;;25.51;86.19
9235;BME280;4652;42.716;23.218;2023-08-06T11:53:37;93629.13;;;26.21;71.29
9235;BME280;4652;42.716;23.218;2023-08-06T12:00:20;93639.47;;;26.17;78.48
9235;BME280;4652;42.716;23.218;2023-08-06T12:07:07;93627.72;;;26.09;70.85
9235;BME280;4652;42.716;23.218;2023-08-06T12:13:52;93603.34;;;26.04;69.32
9235;BME280;4652;42.716;23.218;2023-08-06T12:20:34;93618.16;;;26.44;71.79
9235;BME280;4652;42.716;23.218;2023-08-06T12:27:16;93611.34;;;26.25;65.64
9235;BME280;4652;42.716;23.218;2023-08-06T12:33:59;93613.84;;;25.86;65.20
9235;BME280;4652;42.716;23.218;2023-08-06T12:40:41;93614.63;;;25.87;65.54
9235;BME280;4652;42.716;23.218;2023-08-06T12:47:23;93605.38;;;25.74;66.81
9235;BME280;4652;42.716;23.218;2023-08-06T12:54:07;93602.19;;;25.75;67.92
9235;BME280;4652;42.716;23.218;2023-08-06T14:25:12;93607.50;;;26.93;58.09
9235;BME280;4652;42.716;23.218;2023-08-06T14:31:54;93629.88;;;26.75;62.92
9235;BME280;4652;42.716;23.218;2023-08-06T14:38:35;93619.06;;;26.61;61.84
9235;BME280;4652;42.716;23.218;2023-08-06T14:45:18;93575.94;;;26.20;59.64
9235;BME280;4652;42.716;23.218;2023-08-06T14:52:00;93626.16;;;26.85;61.02
9235;BME280;4652;42.716;23.218;2023-08-06T14:58:42;93597.78;;;27.04;58.09
9235;BME280;4652;42.716;23.218;2023-08-06T15:05:26;93597.28;;;27.09;58.01
9235;BME280;4652;42.716;23.218;2023-08-06T15:12:08;93611.41;;;26.95;60.39
9235;BME280;4652;42.716;23.218;2023-08-06T15:18:53;93604.06;;;26.62;60.42
9235;BME280;4652;42.716;23.218;2023-08-06T15:25:40;93610.88;;;26.77;62.07
9235;BME280;4652;42.716;23.218;2023-08-06T15:32:24;93596.84;;;26.91;58.67
9235;BME280;4652;42.716;23.218;2023-08-06T15:39:07;93604.41;;;27.30;58.61
9235;BME280;4652;42.716;23.218;2023-08-06T15:45:50;93621.78;;;27.30;58.70
9235;BME280;4652;42.716;23.218;2023-08-06T15:52:33;93633.72;;;27.04;58.99
9235;BME280;4652;42.716;23.218;2023-08-06T15:59:22;93637.56;;;27.10;59.60
9235;BME280;4652;42.716;23.218;2023-08-06T16:06:06;93658.03;;;27.36;60.74
9235;BME280;4652;42.716;23.218;2023-08-06T16:12:48;93662.81;;;26.89;61.24
9235;BME280;4652;42.716;23.218;2023-08-06T16:19:30;93658.78;;;26.44;55.77
9235;BME280;4652;42.716;23.218;2023-08-06T16:26:13;93667.84;;;26.17;56.11
9235;BME280;4652;42.716;23.218;2023-08-06T16:32:55;93651.78;;;25.79;55.26
9235;BME280;4652;42.716;23.218;2023-08-06T16:39:37;93677.44;;;25.76;55.79
9235;BME280;4652;42.716;23.218;2023-08-06T16:46:20;93677.41;;;25.42;56.60
9235;BME280;4652;42.716;23.218;2023-08-06T16:53:02;93692.81;;;25.36;57.38
9235;BME280;4652;42.716;23.218;2023-08-06T16:59:45;93709.22;;;25.13;58.41
9235;BME280;4652;42.716;23.218;2023-08-06T17:06:28;93714.69;;;25.16;58.13
9235;BME280;4652;42.716;23.218;2023-08-06T17:13:10;93654.31;;;24.43;58.67
9235;BME280;4652;42.716;23.218;2023-08-06T17:19:52;93734.69;;;24.72;57.81
9235;BME280;4652;42.716;23.218;2023-08-06T17:26:35;93740.78;;;24.46;57.97
9235;BME280;4652;42.716;23.218;2023-08-06T17:33:17;93749.47;;;24.41;58.10
9235;BME280;4652;42.716;23.218;2023-08-06T17:39:59;93762.53;;;24.26;59.58
9235;BME280;4652;42.716;23.218;2023-08-06T17:46:43;93760.59;;;24.20;60.28
9235;BME280;4652;42.716;23.218;2023-08-06T17:53:25;93771.25;;;24.04;59.44
9235;BME280;4652;42.716;23.218;2023-08-06T18:00:07;93792.50;;;23.96;60.05
9235;BME280;4652;42.716;23.218;2023-08-06T18:06:51;93785.88;;;23.72;59.82
9235;BME280;4652;42.716;23.218;2023-08-06T18:13:33;93820.03;;;23.78;60.65
9235;BME280;4652;42.716;23.218;2023-08-06T18:20:15;93836.94;;;23.77;60.75
9235;BME280;4652;42.716;23.218;2023-08-06T18:26:58;93849.13;;;23.76;60.80
9235;BME280;4652;42.716;23.218;2023-08-06T18:33:40;93851.09;;;23.75;63.18
9235;BME280;4652;42.716;23.218;2023-08-06T18:40:22;93853.88;;;23.44;67.42
9235;BME280;4652;42.716;23.218;2023-08-06T18:47:06;93831.06;;;23.01;73.32
9235;BME280;4652;42.716;23.218;2023-08-06T18:53:48;93872.66;;;22.96;75.63
9235;BME280;4652;42.716;23.218;2023-08-06T20:25:12;94159.94;;;18.73;100.00
9235;BME280;4652;42.716;23.218;2023-08-06T20:31:54;94165.91;;;18.79;100.00
9235;BME280;4652;42.716;23.218;2023-08-06T20:38:36;94177.84;;;18.90;100.00
9235;BME280;4652;42.716;23.218;2023-08-06T20:45:20;94082.41;;;18.40;100.00
9235;BME280;4652;42.716;23.218;2023-08-06T20:52:02;94163.56;;;18.62;100.00
9235;BME280;4652;42.716;23.218;2023-08-06T20:58:44;94155.31;;;18.43;100.00
9235;BME280;4652;42.716;23.218;2023-08-06T21:05:27;94168.06;;;18.54;100.00
9235;BME280;4652;42.716;23.218;2023-08-06T21:12:10;94168.00;;;18.51;100.00
9235;BME280;4652;42.716;23.218;2023-08-06T21:18:52;94166.44;;;18.50;100.00
9235;BME280;4652;42.716;23.218;2023-08-06T21:25:35;94155.66;;;18.57;100.00
9235;BME280;4652;42.716;23.218;2023-08-06T21:32:17;94161.44;;;18.71;100.00
9235;BME280;4652;42.716;23.218;2023-08-06T21:38:59;94185.72;;;18.45;100.00
9235;BME280;4652;42.716;23.218;2023-08-06T21:45:43;94188.22;;;18.18;100.00
9235;BME280;4652;42.716;23.218;2023-08-06T21:52:25;94200.53;;;18.12;100.00
9235;BME280;4652;42.716;23.218;2023-08-06T21:59:07;94207.31;;;18.18;100.00
9235;BME280;4652;42.716;23.218;2023-08-06T22:05:50;94198.53;;;18.25;100.00
9235;BME280;4652;42.716;23.218;2023-08-06T22:12:32;94198.41;;;18.22;100.00
9235;BME280;4652;42.716;23.218;2023-08-06T22:19:15;94208.34;;;18.30;100.00
9235;BME280;4652;42.716;23.218;2023-08-06T22:25:59;94213.19;;;18.20;100.00
9235;BME280;4652;42.716;23.218;2023-08-06T22:32:40;94225.69;;;18.22;100.00
9235;BME280;4652;42.716;23.218;2023-08-06T22:39:22;94246.69;;;18.21;100.00
9235;BME280;4652;42.716;23.218;2023-08-06T22:46:06;94220.50;;;18.16;100.00
9235;BME280;4652;42.716;23.218;2023-08-06T22:52:48;94220.22;;;18.06;100.00
9235;BME280;4652;42.716;23.218;2023-08-06T22:59:30;94234.13;;;18.16;100.00
9235;BME280;4652;42.716;23.218;2023-08-06T23:06:13;94215.13;;;18.04;100.00
9235;BME280;4652;42.716;23.218;2023-08-06T23:12:55;94228.09;;;17.95;100.00
9235;BME280;4652;42.716;23.218;2023-08-06T23:19:37;94223.47;;;17.68;100.00
9235;BME280;4652;42.716;23.218;2023-08-06T23:26:21;94218.53;;;17.18;100.00
9235;BME280;4652;42.716;23.218;2023-08-06T23:33:03;94235.47;;;17.12;100.00
9235;BME280;4652;42.716;23.218;2023-08-06T23:39:45;94248.16;;;17.08;100.00
9235;BME280;4652;42.716;23.218;2023-08-06T23:46:28;94235.50;;;16.99;100.00
9235;BME280;4652;42.716;23.218;2023-08-06T23:53:10;94249.31;;;17.07;100.00
9235;BME280;4652;42.716;23.218;2023-08-06T23:59:52;94227.69;;;16.98;100.00
